sensor_id;sensor_type;location;lat;lon;timestamp;temperature;humidity
3262;DHT22;1643;47.746;9.000;2023-02-28T00:00:15;1.30;96.20
3262;DHT22;1643;47.746;9.000;2023-02-28T00:02:42;1.40;96.40
3262;DHT22;1643;47.746;9.000;2023-02-28T00:05:12;1.40;96.40
3262;DHT22;1643;47.746;9.000;2023-02-28T00:07:38;1.40;96.30
3262;DHT22;1643;47.746;9.000;2023-02-28T00:10:09;1.40;96.20
3262;DHT22;1643;47.746;9.000;2023-02-28T00:12:35;1.40;96.20
3262;DHT22;1643;47.746;9.000;2023-02-28T00:15:02;1.50;96.30
3262;DHT22;1643;47.746;9.000;2023-02-28T00:17:30;1.60;96.20
3262;DHT22;1643;47.746;9.000;2023-02-28T00:19:55;1.50;96.20
3262;DHT22;1643;47.746;9.000;2023-02-28T00:22:22;1.40;96.30
3262;DHT22;1643;47.746;9.000;2023-02-28T00:24:48;1.40;96.30
3262;DHT22;1643;47.746;9.000;2023-02-28T00:27:14;1.40;96.40
3262;DHT22;1643;47.746;9.000;2023-02-28T00:29:39;1.50;96.30
3262;DHT22;1643;47.746;9.000;2023-02-28T00:32:06;1.50;96.20
3262;DHT22;1643;47.746;9.000;2023-02-28T00:34:32;1.40;96.30
3262;DHT22;1643;47.746;9.000;2023-02-28T00:37:04;1.40;96.40
3262;DHT22;1643;47.746;9.000;2023-02-28T00:39:31;1.50;96.40
3262;DHT22;1643;47.746;9.000;2023-02-28T00:41:56;1.50;96.30
3262;DHT22;1643;47.746;9.000;2023-02-28T00:44:22;1.40;96.30
3262;DHT22;1643;47.746;9.000;2023-02-28T00:46:47;1.50;96.40
3262;DHT22;1643;47.746;9.000;2023-02-28T00:49:13;1.60;96.20
3262;DHT22;1643;47.746;9.000;2023-02-28T00:51:39;1.60;96.20
3262;DHT22;1643;47.746;9.000;2023-02-28T00:54:04;1.50;96.20
3262;DHT22;1643;47.746;9.000;2023-02-28T00:56:30;1.50;96.30
3262;DHT22;1643;47.746;9.000;2023-02-28T00:58:55;1.40;96.30
3262;DHT22;1643;47.746;9.000;2023-02-28T01:01:21;1.30;96.50
3262;DHT22;1643;47.746;9.000;2023-02-28T01:03:47;1.20;96.50
3262;DHT22;1643;47.746;9.000;2023-02-28T01:06:12;1.20;96.60
3262;DHT22;1643;47.746;9.000;2023-02-28T01:08:38;1.20;96.60
3262;DHT22;1643;47.746;9.000;2023-02-28T01:11:11;1.40;96.30
3262;DHT22;1643;47.746;9.000;2023-02-28T01:13:37;1.50;96.50
3262;DHT22;1643;47.746;9.000;2023-02-28T01:16:03;1.40;96.40
3262;DHT22;1643;47.746;9.000;2023-02-28T01:18:29;1.50;96.50
3262;DHT22;1643;47.746;9.000;2023-02-28T01:20:54;1.40;96.50
3262;DHT22;1643;47.746;9.000;2023-02-28T01:23:22;1.40;96.50
3262;DHT22;1643;47.746;9.000;2023-02-28T01:25:52;1.40;96.50
3262;DHT22;1643;47.746;9.000;2023-02-28T01:28:17;1.40;96.80
3262;DHT22;1643;47.746;9.000;2023-02-28T01:30:48;1.30;96.50
3262;DHT22;1643;47.746;9.000;2023-02-28T01:33:13;1.10;96.60
3262;DHT22;1643;47.746;9.000;2023-02-28T01:35:39;1.20;96.70
3262;DHT22;1643;47.746;9.000;2023-02-28T01:38:04;1.30;96.70
3262;DHT22;1643;47.746;9.000;2023-02-28T01:40:30;1.30;96.60
3262;DHT22;1643;47.746;9.000;2023-02-28T01:42:55;1.20;96.60
3262;DHT22;1643;47.746;9.000;2023-02-28T01:45:27;1.20;96.70
3262;DHT22;1643;47.746;9.000;2023-02-28T01:48:06;1.30;96.80
3262;DHT22;1643;47.746;9.000;2023-02-28T01:50:36;1.20;96.70
3262;DHT22;1643;47.746;9.000;2023-02-28T01:53:06;1.30;96.70
3262;DHT22;1643;47.746;9.000;2023-02-28T01:55:34;1.30;96.60
3262;DHT22;1643;47.746;9.000;2023-02-28T01:58:02;1.30;96.70
3262;DHT22;1643;47.746;9.000;2023-02-28T02:00:29;1.30;96.70
3262;DHT22;1643;47.746;9.000;2023-02-28T02:03:01;1.30;96.70
3262;DHT22;1643;47.746;9.000;2023-02-28T02:05:30;1.30;96.80
3262;DHT22;1643;47.746;9.000;2023-02-28T02:08:04;1.30;96.80
3262;DHT22;1643;47.746;9.000;2023-02-28T02:10:44;1.40;96.80
3262;DHT22;1643;47.746;9.000;2023-02-28T02:13:42;1.40;96.60
3262;DHT22;1643;47.746;9.000;2023-02-28T02:16:20;1.50;96.60
3262;DHT22;1643;47.746;9.000;2023-02-28T02:18:53;1.50;96.60
3262;DHT22;1643;47.746;9.000;2023-02-28T02:24:45;1.50;96.60
3262;DHT22;1643;47.746;9.000;2023-02-28T02:36:27;1.70;96.40
3262;DHT22;1643;47.746;9.000;2023-02-28T02:39:02;1.70;96.40
3262;DHT22;1643;47.746;9.000;2023-02-28T02:41:49;1.70;96.40
3262;DHT22;1643;47.746;9.000;2023-02-28T02:44:31;1.70;96.40
3262;DHT22;1643;47.746;9.000;2023-02-28T02:47:06;1.60;96.40
3262;DHT22;1643;47.746;9.000;2023-02-28T02:49:36;1.60;96.40
3262;DHT22;1643;47.746;9.000;2023-02-28T02:52:08;1.60;96.40
3262;DHT22;1643;47.746;9.000;2023-02-28T02:54:37;1.60;96.40
3262;DHT22;1643;47.746;9.000;2023-02-28T02:57:21;1.40;96.20
3262;DHT22;1643;47.746;9.000;2023-02-28T02:59:48;1.40;96.40
3262;DHT22;1643;47.746;9.000;2023-02-28T03:02:16;1.40;96.40
3262;DHT22;1643;47.746;9.000;2023-02-28T03:04:46;1.50;96.30
3262;DHT22;1643;47.746;9.000;2023-02-28T03:07:13;1.40;96.30
3262;DHT22;1643;47.746;9.000;2023-02-28T03:09:39;1.40;96.40
3262;DHT22;1643;47.746;9.000;2023-02-28T03:12:09;1.50;96.40
3262;DHT22;1643;47.746;9.000;2023-02-28T03:17:31;1.60;96.40
3262;DHT22;1643;47.746;9.000;2023-02-28T03:23:13;1.60;96.40
3262;DHT22;1643;47.746;9.000;2023-02-28T03:30:51;1.80;96.30
3262;DHT22;1643;47.746;9.000;2023-02-28T03:33:24;1.70;96.20
3262;DHT22;1643;47.746;9.000;2023-02-28T03:35:57;1.70;96.20
3262;DHT22;1643;47.746;9.000;2023-02-28T03:38:37;1.60;96.20
3262;DHT22;1643;47.746;9.000;2023-02-28T03:41:09;1.60;96.30
3262;DHT22;1643;47.746;9.000;2023-02-28T03:43:39;1.60;96.30
3262;DHT22;1643;47.746;9.000;2023-02-28T03:46:09;1.60;96.30
3262;DHT22;1643;47.746;9.000;2023-02-28T03:48:50;1.70;96.20
3262;DHT22;1643;47.746;9.000;2023-02-28T03:51:19;1.70;96.20
3262;DHT22;1643;47.746;9.000;2023-02-28T03:54:13;1.70;96.30
3262;DHT22;1643;47.746;9.000;2023-02-28T03:56:42;1.70;96.20
3262;DHT22;1643;47.746;9.000;2023-02-28T03:59:31;1.70;96.20
3262;DHT22;1643;47.746;9.000;2023-02-28T04:01:58;1.70;96.30
3262;DHT22;1643;47.746;9.000;2023-02-28T04:04:24;1.70;96.20
3262;DHT22;1643;47.746;9.000;2023-02-28T04:06:51;1.60;96.50
3262;DHT22;1643;47.746;9.000;2023-02-28T04:09:17;1.50;96.40
3262;DHT22;1643;47.746;9.000;2023-02-28T04:11:49;1.50;96.40
3262;DHT22;1643;47.746;9.000;2023-02-28T04:14:17;1.50;96.40
3262;DHT22;1643;47.746;9.000;2023-02-28T04:16:42;1.60;96.40
3262;DHT22;1643;47.746;9.000;2023-02-28T04:19:10;1.70;96.40
3262;DHT22;1643;47.746;9.000;2023-02-28T04:21:41;1.60;96.30
3262;DHT22;1643;47.746;9.000;2023-02-28T04:24:14;1.60;96.30
3262;DHT22;1643;47.746;9.000;2023-02-28T04:26:42;1.70;96.30
3262;DHT22;1643;47.746;9.000;2023-02-28T04:29:14;1.70;96.30
3262;DHT22;1643;47.746;9.000;2023-02-28T04:31:40;1.70;96.30
3262;DHT22;1643;47.746;9.000;2023-02-28T04:34:06;1.60;96.30
3262;DHT22;1643;47.746;9.000;2023-02-28T04:36:32;1.60;96.40
3262;DHT22;1643;47.746;9.000;2023-02-28T04:38:57;1.60;96.40
3262;DHT22;1643;47.746;9.000;2023-02-28T04:41:23;1.70;96.40
3262;DHT22;1643;47.746;9.000;2023-02-28T04:43:50;1.70;96.40
3262;DHT22;1643;47.746;9.000;2023-02-28T04:46:16;1.80;96.40
3262;DHT22;1643;47.746;9.000;2023-02-28T04:48:43;1.70;96.40
3262;DHT22;1643;47.746;9.000;2023-02-28T04:51:11;1.60;96.40
3262;DHT22;1643;47.746;9.000;2023-02-28T04:53:38;1.70;96.50
3262;DHT22;1643;47.746;9.000;2023-02-28T04:56:05;1.70;96.40
3262;DHT22;1643;47.746;9.000;2023-02-28T04:58:32;1.70;96.40
3262;DHT22;1643;47.746;9.000;2023-02-28T05:01:06;1.70;96.30
3262;DHT22;1643;47.746;9.000;2023-02-28T05:03:38;1.70;96.30
3262;DHT22;1643;47.746;9.000;2023-02-28T05:06:06;1.70;96.30
3262;DHT22;1643;47.746;9.000;2023-02-28T05:08:32;1.60;96.30
3262;DHT22;1643;47.746;9.000;2023-02-28T05:10:58;1.60;96.30
3262;DHT22;1643;47.746;9.000;2023-02-28T05:13:26;1.70;96.20
3262;DHT22;1643;47.746;9.000;2023-02-28T05:15:52;1.60;96.20
3262;DHT22;1643;47.746;9.000;2023-02-28T05:18:17;1.70;96.30
3262;DHT22;1643;47.746;9.000;2023-02-28T05:20:43;1.70;96.30
3262;DHT22;1643;47.746;9.000;2023-02-28T05:23:11;1.70;96.20
3262;DHT22;1643;47.746;9.000;2023-02-28T05:25:38;1.60;96.30
3262;DHT22;1643;47.746;9.000;2023-02-28T05:28:07;1.60;96.30
3262;DHT22;1643;47.746;9.000;2023-02-28T05:30:33;1.70;96.30
3262;DHT22;1643;47.746;9.000;2023-02-28T05:32:59;1.60;96.30
3262;DHT22;1643;47.746;9.000;2023-02-28T05:35:25;1.70;96.30
3262;DHT22;1643;47.746;9.000;2023-02-28T05:37:51;1.70;96.30
3262;DHT22;1643;47.746;9.000;2023-02-28T05:40:17;1.70;96.20
3262;DHT22;1643;47.746;9.000;2023-02-28T05:42:44;1.70;96.20
3262;DHT22;1643;47.746;9.000;2023-02-28T05:45:10;1.80;96.20
3262;DHT22;1643;47.746;9.000;2023-02-28T05:47:36;1.80;96.20
3262;DHT22;1643;47.746;9.000;2023-02-28T05:50:02;1.80;96.20
3262;DHT22;1643;47.746;9.000;2023-02-28T05:52:28;1.80;96.10
3262;DHT22;1643;47.746;9.000;2023-02-28T05:54:55;1.80;96.10
3262;DHT22;1643;47.746;9.000;2023-02-28T05:57:21;1.80;96.10
3262;DHT22;1643;47.746;9.000;2023-02-28T05:59:47;1.70;96.00
3262;DHT22;1643;47.746;9.000;2023-02-28T06:02:15;1.70;96.00
3262;DHT22;1643;47.746;9.000;2023-02-28T06:04:42;1.70;96.20
3262;DHT22;1643;47.746;9.000;2023-02-28T06:07:08;1.70;95.90
3262;DHT22;1643;47.746;9.000;2023-02-28T06:09:34;1.80;95.90
3262;DHT22;1643;47.746;9.000;2023-02-28T06:12:01;1.70;95.90
3262;DHT22;1643;47.746;9.000;2023-02-28T06:14:29;1.60;95.70
3262;DHT22;1643;47.746;9.000;2023-02-28T06:16:56;1.70;95.80
3262;DHT22;1643;47.746;9.000;2023-02-28T06:19:22;1.70;95.70
3262;DHT22;1643;47.746;9.000;2023-02-28T06:21:51;1.70;95.70
3262;DHT22;1643;47.746;9.000;2023-02-28T06:24:18;1.70;95.70
3262;DHT22;1643;47.746;9.000;2023-02-28T06:26:44;1.70;95.70
3262;DHT22;1643;47.746;9.000;2023-02-28T06:29:10;1.70;95.70
3262;DHT22;1643;47.746;9.000;2023-02-28T06:31:37;1.70;95.60
3262;DHT22;1643;47.746;9.000;2023-02-28T06:34:04;1.80;95.70
3262;DHT22;1643;47.746;9.000;2023-02-28T06:36:30;1.70;95.60
3262;DHT22;1643;47.746;9.000;2023-02-28T06:38:56;1.80;95.70
3262;DHT22;1643;47.746;9.000;2023-02-28T06:41:25;1.80;95.60
3262;DHT22;1643;47.746;9.000;2023-02-28T06:43:52;1.80;95.60
3262;DHT22;1643;47.746;9.000;2023-02-28T06:46:18;1.80;95.60
3262;DHT22;1643;47.746;9.000;2023-02-28T06:48:44;1.70;95.50
3262;DHT22;1643;47.746;9.000;2023-02-28T06:51:18;1.70;95.70
3262;DHT22;1643;47.746;9.000;2023-02-28T06:53:46;1.70;95.70
3262;DHT22;1643;47.746;9.000;2023-02-28T06:56:13;1.70;95.70
3262;DHT22;1643;47.746;9.000;2023-02-28T06:58:39;1.70;95.70
3262;DHT22;1643;47.746;9.000;2023-02-28T07:01:06;1.60;95.70
3262;DHT22;1643;47.746;9.000;2023-02-28T07:03:32;1.60;95.70
3262;DHT22;1643;47.746;9.000;2023-02-28T07:05:58;1.70;95.70
3262;DHT22;1643;47.746;9.000;2023-02-28T07:08:24;1.70;95.60
3262;DHT22;1643;47.746;9.000;2023-02-28T07:10:54;1.70;95.60
3262;DHT22;1643;47.746;9.000;2023-02-28T07:13:20;1.70;95.60
3262;DHT22;1643;47.746;9.000;2023-02-28T07:15:54;1.70;95.90
3262;DHT22;1643;47.746;9.000;2023-02-28T07:18:19;1.70;95.50
3262;DHT22;1643;47.746;9.000;2023-02-28T07:20:45;1.70;95.50
3262;DHT22;1643;47.746;9.000;2023-02-28T07:23:11;1.80;95.50
3262;DHT22;1643;47.746;9.000;2023-02-28T07:25:36;1.90;95.40
3262;DHT22;1643;47.746;9.000;2023-02-28T07:28:02;1.90;95.40
3262;DHT22;1643;47.746;9.000;2023-02-28T07:30:27;1.90;95.30
3262;DHT22;1643;47.746;9.000;2023-02-28T07:32:53;2.00;95.20
3262;DHT22;1643;47.746;9.000;2023-02-28T07:35:21;1.90;95.10
3262;DHT22;1643;47.746;9.000;2023-02-28T07:37:47;1.90;95.10
3262;DHT22;1643;47.746;9.000;2023-02-28T07:40:13;2.00;95.10
3262;DHT22;1643;47.746;9.000;2023-02-28T07:42:42;1.90;95.20
3262;DHT22;1643;47.746;9.000;2023-02-28T07:45:08;1.90;95.20
3262;DHT22;1643;47.746;9.000;2023-02-28T07:47:37;1.90;95.30
3262;DHT22;1643;47.746;9.000;2023-02-28T07:50:03;1.80;95.20
3262;DHT22;1643;47.746;9.000;2023-02-28T07:52:29;1.80;95.30
3262;DHT22;1643;47.746;9.000;2023-02-28T07:54:54;1.80;95.30
3262;DHT22;1643;47.746;9.000;2023-02-28T07:57:20;1.90;95.40
3262;DHT22;1643;47.746;9.000;2023-02-28T07:59:46;1.90;95.40
3262;DHT22;1643;47.746;9.000;2023-02-28T08:02:16;1.90;95.40
3262;DHT22;1643;47.746;9.000;2023-02-28T08:04:42;1.90;95.70
3262;DHT22;1643;47.746;9.000;2023-02-28T08:07:08;1.90;95.40
3262;DHT22;1643;47.746;9.000;2023-02-28T08:09:34;1.90;95.40
3262;DHT22;1643;47.746;9.000;2023-02-28T08:11:59;2.00;95.40
3262;DHT22;1643;47.746;9.000;2023-02-28T08:14:25;2.00;95.40
3262;DHT22;1643;47.746;9.000;2023-02-28T08:16:51;2.00;95.40
3262;DHT22;1643;47.746;9.000;2023-02-28T08:19:17;2.00;95.40
3262;DHT22;1643;47.746;9.000;2023-02-28T08:21:42;2.00;95.40
3262;DHT22;1643;47.746;9.000;2023-02-28T08:24:08;2.00;95.30
3262;DHT22;1643;47.746;9.000;2023-02-28T08:26:33;1.90;95.30
3262;DHT22;1643;47.746;9.000;2023-02-28T08:28:59;2.00;95.30
3262;DHT22;1643;47.746;9.000;2023-02-28T08:31:25;2.00;95.30
3262;DHT22;1643;47.746;9.000;2023-02-28T08:33:51;2.00;95.30
3262;DHT22;1643;47.746;9.000;2023-02-28T08:36:18;2.00;95.30
3262;DHT22;1643;47.746;9.000;2023-02-28T08:38:44;1.90;95.30
3262;DHT22;1643;47.746;9.000;2023-02-28T08:41:12;1.90;95.30
3262;DHT22;1643;47.746;9.000;2023-02-28T08:43:38;1.90;95.40
3262;DHT22;1643;47.746;9.000;2023-02-28T08:46:05;1.90;95.40
3262;DHT22;1643;47.746;9.000;2023-02-28T08:48:32;1.90;95.40
3262;DHT22;1643;47.746;9.000;2023-02-28T08:51:04;2.00;95.30
3262;DHT22;1643;47.746;9.000;2023-02-28T08:53:31;2.00;95.30
3262;DHT22;1643;47.746;9.000;2023-02-28T08:56:02;2.00;95.30
3262;DHT22;1643;47.746;9.000;2023-02-28T08:58:28;2.10;95.30
3262;DHT22;1643;47.746;9.000;2023-02-28T09:00:54;2.10;95.30
3262;DHT22;1643;47.746;9.000;2023-02-28T09:03:21;2.10;95.20
3262;DHT22;1643;47.746;9.000;2023-02-28T09:05:54;2.10;95.30
3262;DHT22;1643;47.746;9.000;2023-02-28T09:08:20;2.10;95.30
3262;DHT22;1643;47.746;9.000;2023-02-28T09:10:46;2.10;95.30
3262;DHT22;1643;47.746;9.000;2023-02-28T09:13:12;2.20;95.30
3262;DHT22;1643;47.746;9.000;2023-02-28T09:15:38;2.20;95.30
3262;DHT22;1643;47.746;9.000;2023-02-28T09:18:04;2.10;95.30
3262;DHT22;1643;47.746;9.000;2023-02-28T09:20:29;2.20;95.40
3262;DHT22;1643;47.746;9.000;2023-02-28T09:22:55;2.10;95.30
3262;DHT22;1643;47.746;9.000;2023-02-28T09:25:21;2.00;95.40
3262;DHT22;1643;47.746;9.000;2023-02-28T09:27:46;2.10;95.40
3262;DHT22;1643;47.746;9.000;2023-02-28T09:30:13;2.10;95.40
3262;DHT22;1643;47.746;9.000;2023-02-28T09:32:38;2.10;95.40
3262;DHT22;1643;47.746;9.000;2023-02-28T09:35:05;2.00;95.30
3262;DHT22;1643;47.746;9.000;2023-02-28T09:37:31;2.00;95.40
3262;DHT22;1643;47.746;9.000;2023-02-28T09:39:57;2.10;95.50
3262;DHT22;1643;47.746;9.000;2023-02-28T09:42:31;2.10;95.30
3262;DHT22;1643;47.746;9.000;2023-02-28T09:44:58;2.00;95.40
3262;DHT22;1643;47.746;9.000;2023-02-28T09:47:36;2.00;95.50
3262;DHT22;1643;47.746;9.000;2023-02-28T09:52:51;2.00;95.40
3262;DHT22;1643;47.746;9.000;2023-02-28T09:55:31;2.00;95.50
3262;DHT22;1643;47.746;9.000;2023-02-28T09:57:58;2.00;95.50
3262;DHT22;1643;47.746;9.000;2023-02-28T10:00:39;1.90;95.50
3262;DHT22;1643;47.746;9.000;2023-02-28T10:03:28;1.90;95.60
3262;DHT22;1643;47.746;9.000;2023-02-28T10:06:20;2.00;95.70
3262;DHT22;1643;47.746;9.000;2023-02-28T10:08:57;2.10;95.50
3262;DHT22;1643;47.746;9.000;2023-02-28T10:11:25;2.20;95.40
3262;DHT22;1643;47.746;9.000;2023-02-28T10:14:04;2.10;95.40
3262;DHT22;1643;47.746;9.000;2023-02-28T10:16:55;2.20;95.40
3262;DHT22;1643;47.746;9.000;2023-02-28T10:24:54;2.10;95.70
3262;DHT22;1643;47.746;9.000;2023-02-28T10:27:29;2.10;95.40
3262;DHT22;1643;47.746;9.000;2023-02-28T10:29:57;2.10;95.40
3262;DHT22;1643;47.746;9.000;2023-02-28T10:32:26;2.10;95.40
3262;DHT22;1643;47.746;9.000;2023-02-28T10:35:17;2.20;95.50
3262;DHT22;1643;47.746;9.000;2023-02-28T10:37:46;2.20;95.50
3262;DHT22;1643;47.746;9.000;2023-02-28T10:45:23;2.30;95.60
3262;DHT22;1643;47.746;9.000;2023-02-28T10:47:55;2.30;95.60
3262;DHT22;1643;47.746;9.000;2023-02-28T10:50:33;2.30;95.60
3262;DHT22;1643;47.746;9.000;2023-02-28T10:53:16;2.40;95.60
3262;DHT22;1643;47.746;9.000;2023-02-28T10:55:42;2.50;95.60
3262;DHT22;1643;47.746;9.000;2023-02-28T10:58:25;2.50;95.60
3262;DHT22;1643;47.746;9.000;2023-02-28T11:00:52;2.40;95.60
3262;DHT22;1643;47.746;9.000;2023-02-28T11:03:38;2.40;95.60
3262;DHT22;1643;47.746;9.000;2023-02-28T11:06:13;2.50;95.50
3262;DHT22;1643;47.746;9.000;2023-02-28T11:08:49;2.50;95.50
3262;DHT22;1643;47.746;9.000;2023-02-28T11:11:16;2.60;95.40
3262;DHT22;1643;47.746;9.000;2023-02-28T11:13:42;2.60;95.30
3262;DHT22;1643;47.746;9.000;2023-02-28T11:16:11;2.50;95.30
3262;DHT22;1643;47.746;9.000;2023-02-28T11:18:46;2.40;95.40
3262;DHT22;1643;47.746;9.000;2023-02-28T11:21:19;2.50;95.50
3262;DHT22;1643;47.746;9.000;2023-02-28T11:23:46;2.50;95.50
3262;DHT22;1643;47.746;9.000;2023-02-28T11:26:13;2.50;95.50
3262;DHT22;1643;47.746;9.000;2023-02-28T11:28:40;2.60;95.50
3262;DHT22;1643;47.746;9.000;2023-02-28T11:33:48;2.80;95.50
3262;DHT22;1643;47.746;9.000;2023-02-28T11:36:25;2.80;95.50
3262;DHT22;1643;47.746;9.000;2023-02-28T11:38:54;2.80;95.40
3262;DHT22;1643;47.746;9.000;2023-02-28T11:47:42;2.80;95.50
3262;DHT22;1643;47.746;9.000;2023-02-28T11:52:48;2.90;95.60
3262;DHT22;1643;47.746;9.000;2023-02-28T11:58:27;2.90;95.60
3262;DHT22;1643;47.746;9.000;2023-02-28T12:00:57;2.90;95.60
3262;DHT22;1643;47.746;9.000;2023-02-28T12:11:45;3.00;95.60
3262;DHT22;1643;47.746;9.000;2023-02-28T12:17:26;3.10;95.60
3262;DHT22;1643;47.746;9.000;2023-02-28T12:23:19;3.20;95.60
3262;DHT22;1643;47.746;9.000;2023-02-28T12:26:01;3.20;95.60
3262;DHT22;1643;47.746;9.000;2023-02-28T12:28:34;3.30;95.60
3262;DHT22;1643;47.746;9.000;2023-02-28T12:31:09;3.30;95.50
3262;DHT22;1643;47.746;9.000;2023-02-28T12:33:40;3.30;95.60
3262;DHT22;1643;47.746;9.000;2023-02-28T12:36:11;3.20;95.40
3262;DHT22;1643;47.746;9.000;2023-02-28T12:39:26;3.10;95.50
3262;DHT22;1643;47.746;9.000;2023-02-28T12:41:41;3.00;95.50
3262;DHT22;1643;47.746;9.000;2023-02-28T12:47:08;3.10;95.50
3262;DHT22;1643;47.746;9.000;2023-02-28T12:49:59;3.20;95.60
3262;DHT22;1643;47.746;9.000;2023-02-28T12:55:33;3.30;95.50
3262;DHT22;1643;47.746;9.000;2023-02-28T12:58:14;3.30;95.50
3262;DHT22;1643;47.746;9.000;2023-02-28T13:06:25;3.40;95.40
3262;DHT22;1643;47.746;9.000;2023-02-28T13:09:10;3.40;95.50
3262;DHT22;1643;47.746;9.000;2023-02-28T13:11:45;3.40;95.50
3262;DHT22;1643;47.746;9.000;2023-02-28T13:14:24;3.50;95.50
3262;DHT22;1643;47.746;9.000;2023-02-28T13:17:10;3.40;95.50
3262;DHT22;1643;47.746;9.000;2023-02-28T13:22:47;3.50;95.60
3262;DHT22;1643;47.746;9.000;2023-02-28T13:27:53;3.60;95.60
3262;DHT22;1643;47.746;9.000;2023-02-28T13:33:31;3.50;95.60
3262;DHT22;1643;47.746;9.000;2023-02-28T13:39:01;3.50;95.70
3262;DHT22;1643;47.746;9.000;2023-02-28T13:44:06;3.50;95.60
3262;DHT22;1643;47.746;9.000;2023-02-28T13:46:34;3.60;95.70
3262;DHT22;1643;47.746;9.000;2023-02-28T13:57:44;3.70;95.50
3262;DHT22;1643;47.746;9.000;2023-02-28T14:11:41;3.60;95.50
3262;DHT22;1643;47.746;9.000;2023-02-28T14:14:08;3.60;95.60
3262;DHT22;1643;47.746;9.000;2023-02-28T14:16:47;3.50;95.50
3262;DHT22;1643;47.746;9.000;2023-02-28T14:19:26;3.50;95.50
3262;DHT22;1643;47.746;9.000;2023-02-28T14:22:09;3.50;95.40
3262;DHT22;1643;47.746;9.000;2023-02-28T14:27:42;3.30;95.50
3262;DHT22;1643;47.746;9.000;2023-02-28T14:30:17;3.40;95.50
3262;DHT22;1643;47.746;9.000;2023-02-28T14:38:25;4.00;95.30
3262;DHT22;1643;47.746;9.000;2023-02-28T14:40:55;4.00;95.10
3262;DHT22;1643;47.746;9.000;2023-02-28T14:43:24;4.10;95.40
3262;DHT22;1643;47.746;9.000;2023-02-28T14:45:52;4.30;95.10
3262;DHT22;1643;47.746;9.000;2023-02-28T14:48:20;4.60;95.00
3262;DHT22;1643;47.746;9.000;2023-02-28T14:50:52;5.10;94.70
3262;DHT22;1643;47.746;9.000;2023-02-28T14:53:19;5.40;94.40
3262;DHT22;1643;47.746;9.000;2023-02-28T14:55:47;5.80;94.20
3262;DHT22;1643;47.746;9.000;2023-02-28T14:58:26;6.10;93.90
3262;DHT22;1643;47.746;9.000;2023-02-28T15:00:54;6.20;93.70
3262;DHT22;1643;47.746;9.000;2023-02-28T15:03:31;6.30;93.70
3262;DHT22;1643;47.746;9.000;2023-02-28T15:05:59;6.40;93.50
3262;DHT22;1643;47.746;9.000;2023-02-28T15:08:26;6.50;93.30
3262;DHT22;1643;47.746;9.000;2023-02-28T15:11:11;6.70;93.10
3262;DHT22;1643;47.746;9.000;2023-02-28T15:13:43;6.90;93.10
3262;DHT22;1643;47.746;9.000;2023-02-28T15:21:21;7.10;92.60
3262;DHT22;1643;47.746;9.000;2023-02-28T15:24:13;7.30;92.50
3262;DHT22;1643;47.746;9.000;2023-02-28T15:26:57;7.30;92.30
3262;DHT22;1643;47.746;9.000;2023-02-28T15:29:24;7.40;92.10
3262;DHT22;1643;47.746;9.000;2023-02-28T15:31:57;7.50;91.90
3262;DHT22;1643;47.746;9.000;2023-02-28T15:34:37;7.60;91.80
3262;DHT22;1643;47.746;9.000;2023-02-28T15:40:16;7.80;91.70
3262;DHT22;1643;47.746;9.000;2023-02-28T15:42:42;7.80;91.60
3262;DHT22;1643;47.746;9.000;2023-02-28T15:45:37;7.90;91.30
3262;DHT22;1643;47.746;9.000;2023-02-28T15:48:14;7.70;91.40
3262;DHT22;1643;47.746;9.000;2023-02-28T15:50:41;7.60;91.60
3262;DHT22;1643;47.746;9.000;2023-02-28T15:53:13;7.70;91.50
3262;DHT22;1643;47.746;9.000;2023-02-28T15:55:40;7.60;91.50
3262;DHT22;1643;47.746;9.000;2023-02-28T15:58:11;7.60;91.60
3262;DHT22;1643;47.746;9.000;2023-02-28T16:00:39;7.60;91.50
3262;DHT22;1643;47.746;9.000;2023-02-28T16:03:32;7.50;91.60
3262;DHT22;1643;47.746;9.000;2023-02-28T16:06:34;7.70;91.60
3262;DHT22;1643;47.746;9.000;2023-02-28T16:09:00;7.70;91.40
3262;DHT22;1643;47.746;9.000;2023-02-28T16:11:26;7.70;91.50
3262;DHT22;1643;47.746;9.000;2023-02-28T16:13:52;7.60;91.50
3262;DHT22;1643;47.746;9.000;2023-02-28T16:16:21;7.70;91.40
3262;DHT22;1643;47.746;9.000;2023-02-28T16:18:47;7.70;91.30
3262;DHT22;1643;47.746;9.000;2023-02-28T16:21:13;7.70;91.20
3262;DHT22;1643;47.746;9.000;2023-02-28T16:23:39;7.70;91.30
3262;DHT22;1643;47.746;9.000;2023-02-28T16:26:05;7.50;91.30
3262;DHT22;1643;47.746;9.000;2023-02-28T16:28:35;7.50;91.40
3262;DHT22;1643;47.746;9.000;2023-02-28T16:31:02;7.40;91.30
3262;DHT22;1643;47.746;9.000;2023-02-28T16:33:30;7.40;91.40
3262;DHT22;1643;47.746;9.000;2023-02-28T16:35:55;7.40;91.30
3262;DHT22;1643;47.746;9.000;2023-02-28T16:38:21;7.40;91.30
3262;DHT22;1643;47.746;9.000;2023-02-28T16:40:49;7.30;91.30
3262;DHT22;1643;47.746;9.000;2023-02-28T16:43:20;7.20;91.30
3262;DHT22;1643;47.746;9.000;2023-02-28T16:45:47;7.00;91.40
3262;DHT22;1643;47.746;9.000;2023-02-28T16:48:15;6.70;91.50
3262;DHT22;1643;47.746;9.000;2023-02-28T16:50:42;6.50;91.60
3262;DHT22;1643;47.746;9.000;2023-02-28T16:53:10;6.40;91.70
3262;DHT22;1643;47.746;9.000;2023-02-28T16:55:35;6.40;91.80
3262;DHT22;1643;47.746;9.000;2023-02-28T16:58:01;6.40;91.70
3262;DHT22;1643;47.746;9.000;2023-02-28T17:00:28;6.10;91.70
3262;DHT22;1643;47.746;9.000;2023-02-28T17:02:55;5.90;91.90
3262;DHT22;1643;47.746;9.000;2023-02-28T17:05:21;5.70;92.00
3262;DHT22;1643;47.746;9.000;2023-02-28T17:07:48;5.50;92.10
3262;DHT22;1643;47.746;9.000;2023-02-28T17:10:22;5.30;92.30
3262;DHT22;1643;47.746;9.000;2023-02-28T17:12:48;5.20;92.50
3262;DHT22;1643;47.746;9.000;2023-02-28T17:15:16;5.10;92.60
3262;DHT22;1643;47.746;9.000;2023-02-28T17:17:43;5.00;92.70
3262;DHT22;1643;47.746;9.000;2023-02-28T17:20:13;4.90;92.80
3262;DHT22;1643;47.746;9.000;2023-02-28T17:22:39;4.80;92.90
3262;DHT22;1643;47.746;9.000;2023-02-28T17:25:05;4.70;92.90
3262;DHT22;1643;47.746;9.000;2023-02-28T17:27:31;4.60;93.00
3262;DHT22;1643;47.746;9.000;2023-02-28T17:29:56;4.50;93.10
3262;DHT22;1643;47.746;9.000;2023-02-28T17:32:22;4.40;93.20
3262;DHT22;1643;47.746;9.000;2023-02-28T17:34:49;4.40;93.30
3262;DHT22;1643;47.746;9.000;2023-02-28T17:37:14;4.40;93.40
3262;DHT22;1643;47.746;9.000;2023-02-28T17:39:40;4.30;93.40
3262;DHT22;1643;47.746;9.000;2023-02-28T17:42:06;4.40;93.50
3262;DHT22;1643;47.746;9.000;2023-02-28T17:44:31;4.40;93.50
3262;DHT22;1643;47.746;9.000;2023-02-28T17:46:58;4.30;93.50
3262;DHT22;1643;47.746;9.000;2023-02-28T17:49:24;4.30;93.70
3262;DHT22;1643;47.746;9.000;2023-02-28T17:51:50;4.20;93.70
3262;DHT22;1643;47.746;9.000;2023-02-28T17:54:16;4.20;93.80
3262;DHT22;1643;47.746;9.000;2023-02-28T17:56:41;4.10;93.80
3262;DHT22;1643;47.746;9.000;2023-02-28T17:59:10;4.00;93.80
3262;DHT22;1643;47.746;9.000;2023-02-28T18:01:36;4.00;93.90
3262;DHT22;1643;47.746;9.000;2023-02-28T18:04:02;4.00;94.30
3262;DHT22;1643;47.746;9.000;2023-02-28T18:06:41;3.90;94.00
3262;DHT22;1643;47.746;9.000;2023-02-28T18:09:20;4.00;94.10
3262;DHT22;1643;47.746;9.000;2023-02-28T18:11:50;3.90;94.00
3262;DHT22;1643;47.746;9.000;2023-02-28T18:14:17;3.90;94.20
3262;DHT22;1643;47.746;9.000;2023-02-28T18:16:44;3.80;94.20
3262;DHT22;1643;47.746;9.000;2023-02-28T18:19:11;3.80;94.20
3262;DHT22;1643;47.746;9.000;2023-02-28T18:21:45;3.80;94.30
3262;DHT22;1643;47.746;9.000;2023-02-28T18:24:11;3.80;94.30
3262;DHT22;1643;47.746;9.000;2023-02-28T18:26:38;3.70;94.40
3262;DHT22;1643;47.746;9.000;2023-02-28T18:29:05;3.60;94.40
3262;DHT22;1643;47.746;9.000;2023-02-28T18:31:32;3.40;94.60
3262;DHT22;1643;47.746;9.000;2023-02-28T18:33:58;3.40;94.70
3262;DHT22;1643;47.746;9.000;2023-02-28T18:36:24;3.30;94.60
3262;DHT22;1643;47.746;9.000;2023-02-28T18:38:50;3.20;94.70
3262;DHT22;1643;47.746;9.000;2023-02-28T18:41:18;3.20;94.80